Time;durP1;ratioP1;P1;durP2;ratioP2;P2;SDS_P1;SDS_P2;PMS_P1;PMS_P2;Temp;Humidity;BMP_temperature;BMP_pressure;BME280_temperature;BME280_humidity;BME280_pressure;Samples;Min_cycle;Max_cycle;Signal;HPM_P1;HPM_P2
2023/10/08 00:00:55;;;;;;;23.88;5.18;;;;;;;17.19;100.00;102292.16;6171181;23;20020;-87
2023/10/08 00:03:22;;;;;;;20.75;5.93;;;;;;;17.18;100.00;102291.41;6195668;23;20013;-87
2023/10/08 00:05:51;;;;;;;17.95;6.10;;;;;;;17.17;100.00;102303.38;6196565;23;20024;-87
2023/10/08 00:08:18;;;;;;;18.77;5.45;;;;;;;17.17;100.00;102310.69;6221528;23;20021;-87
2023/10/08 00:10:45;;;;;;;21.33;5.32;;;;;;;17.16;100.00;102328.78;6221846;23;20329;-86
2023/10/08 00:13:15;;;;;;;17.13;4.95;;;;;;;17.17;100.00;102334.91;6219241;23;20023;-85
2023/10/08 00:15:50;;;;;;;18.10;5.65;;;;;;;17.17;100.00;102334.91;6193475;23;20033;-86
2023/10/08 00:18:18;;;;;;;16.90;5.50;;;;;;;17.18;100.00;102341.78;6219832;23;20017;-86
2023/10/08 00:20:54;;;;;;;23.90;6.03;;;;;;;17.18;100.00;102339.09;6193686;23;20068;-87
2023/10/08 00:23:25;;;;;;;17.45;5.07;;;;;;;17.17;100.00;102330.28;6167695;23;20021;-87
2023/10/08 00:25:54;;;;;;;19.38;5.47;;;;;;;17.17;100.00;102326.84;6193584;23;20025;-86
2023/10/08 00:28:22;;;;;;;14.88;5.55;;;;;;;17.18;100.00;102328.31;6192992;23;20021;-87
2023/10/08 00:30:49;;;;;;;16.77;5.20;;;;;;;17.15;100.00;102321.91;6219663;23;20071;-86
2023/10/08 00:33:16;;;;;;;21.65;5.53;;;;;;;17.15;100.00;102319.22;6192875;23;20416;-87
2023/10/08 00:35:43;;;;;;;21.20;5.47;;;;;;;17.16;100.00;102328.03;6167921;23;20021;-86
2023/10/08 00:38:32;;;;;;;17.73;5.68;;;;;;;17.16;100.00;102317.25;6192186;23;20479;-86
2023/10/08 00:40:57;;;;;;;20.70;5.60;;;;;;;17.16;100.00;102311.88;6220328;23;20024;-86
2023/10/08 00:43:32;;;;;;;15.88;5.30;;;;;;;17.15;100.00;102315.75;6192936;23;20064;-86
2023/10/08 00:45:59;;;;;;;16.70;5.30;;;;;;;17.15;100.00;102313.06;6219956;23;20021;-86
2023/10/08 00:48:34;;;;;;;12.57;4.85;;;;;;;17.12;100.00;102303.19;6192533;23;20537;-86
2023/10/08 00:51:25;;;;;;;29.65;5.72;;;;;;;17.12;100.00;102301.25;6168227;23;20470;-86
2023/10/08 00:54:08;;;;;;;20.33;6.10;;;;;;;17.10;100.00;102300.22;6193216;23;20023;-86
2023/10/08 00:56:57;;;;;;;16.20;5.10;;;;;;;17.07;100.00;102291.09;6192809;23;20458;-86
2023/10/08 00:59:25;;;;;;;14.68;5.18;;;;;;;17.05;100.00;102290.78;6192703;23;20026;-86
2023/10/08 01:01:58;;;;;;;14.80;5.10;;;;;;;17.04;100.00;102291.97;6192803;23;20092;-86
2023/10/08 01:04:26;;;;;;;23.58;5.50;;;;;;;17.02;100.00;102293.63;6192754;23;21275;-87
2023/10/08 01:06:59;;;;;;;11.95;5.32;;;;;;;16.99;100.00;102281.81;6192768;23;20020;-86
2023/10/08 01:09:35;;;;;;;13.77;5.28;;;;;;;16.99;100.00;102279.13;6218989;23;20398;-87
2023/10/08 01:12:33;;;;;;;14.57;5.47;;;;;;;16.97;100.00;102293.00;6193559;23;20048;-87
2023/10/08 01:15:16;;;;;;;17.58;5.38;;;;;;;16.95;100.00;102287.34;6220096;23;20040;-87
2023/10/08 01:17:48;;;;;;;13.95;5.18;;;;;;;16.92;100.00;102276.72;6192729;23;20049;-87
2023/10/08 01:20:37;;;;;;;15.57;5.75;;;;;;;16.91;100.00;102277.91;6192496;23;20028;-86
2023/10/08 01:23:13;;;;;;;10.27;4.95;;;;;;;16.89;100.00;102286.41;6219785;23;20410;-87
2023/10/08 01:25:42;;;;;;;20.08;5.43;;;;;;;16.87;100.00;102278.03;6219560;23;20477;-87
2023/10/08 01:31:00;;;;;;;16.13;5.03;;;;;;;16.86;100.00;102294.63;6193826;23;20020;-87
2023/10/08 01:33:31;;;;;;;21.73;5.40;;;;;;;16.83;100.00;102293.56;6168241;23;20017;-87
2023/10/08 01:36:04;;;;;;;;;;;;;;;16.84;100.00;102292.38;6193432;23;20103;-87
2023/10/08 01:38:35;;;;;;;19.60;5.55;;;;;;;16.81;100.00;102306.72;6192908;23;20242;-86
2023/10/08 01:41:06;;;;;;;18.33;5.13;;;;;;;16.80;100.00;102310.59;6167939;23;20096;-87
2023/10/08 01:43:32;;;;;;;20.02;5.85;;;;;;;16.79;100.00;102314.50;6192620;23;20021;-86
2023/10/08 01:46:03;;;;;;;18.13;5.50;;;;;;;16.78;100.00;102304.19;6192691;23;20017;-87
2023/10/08 01:48:37;;;;;;;17.15;6.20;;;;;;;16.77;100.00;102314.19;6218711;23;20502;-87
2023/10/08 01:51:11;;;;;;;15.88;5.20;;;;;;;16.75;100.00;102327.34;6191745;23;20032;-86
2023/10/08 01:53:38;;;;;;;16.90;6.10;;;;;;;16.73;100.00;102318.97;6218626;23;20018;-86
2023/10/08 01:56:05;;;;;;;22.45;6.38;;;;;;;16.72;100.00;102328.22;6219026;23;20013;-86
2023/10/08 01:58:35;;;;;;;20.00;5.80;;;;;;;16.70;100.00;102344.06;6191964;23;20017;-86
2023/10/08 02:01:05;;;;;;;16.08;5.50;;;;;;;16.70;100.00;102343.31;6192111;23;20041;-86
2023/10/08 02:03:31;;;;;;;21.08;5.43;;;;;;;16.69;100.00;102353.31;6191796;23;20108;-86
2023/10/08 02:05:59;;;;;;;17.35;5.53;;;;;;;16.69;100.00;102361.38;6191156;23;20032;-87
2023/10/08 02:08:26;;;;;;;26.00;6.05;;;;;;;16.69;100.00;102360.63;6218410;23;20028;-87
2023/10/08 02:10:53;;;;;;;18.67;5.47;;;;;;;16.68;100.00;102354.50;6218824;23;20021;-87
2023/10/08 02:13:19;;;;;;;20.77;5.57;;;;;;;16.67;100.00;102361.06;6191521;23;20017;-87
2023/10/08 02:15:51;;;;;;;19.13;5.55;;;;;;;16.69;100.00;102357.94;6167290;23;20028;-86
2023/10/08 02:18:19;;;;;;;23.48;6.43;;;;;;;16.68;100.00;102359.88;6191834;23;20021;-86
2023/10/08 02:20:46;;;;;;;15.52;5.95;;;;;;;16.66;100.00;102365.69;6191871;23;20021;-86
2023/10/08 02:23:13;;;;;;;16.98;6.07;;;;;;;16.66;100.00;102359.56;6191624;23;20017;-86
2023/10/08 02:25:40;;;;;;;19.05;6.45;;;;;;;16.68;100.00;102370.63;6216898;23;20470;-86
2023/10/08 02:28:12;;;;;;;20.50;6.72;;;;;;;16.68;100.00;102327.63;6218544;23;20017;-87
2023/10/08 02:30:39;;;;;;;19.77;5.97;;;;;;;16.66;100.00;102348.81;6191554;23;20432;-86
2023/10/08 02:33:13;;;;;;;27.15;6.28;;;;;;;16.64;100.00;102348.50;6191372;23;20017;-86
2023/10/08 02:35:42;;;;;;;24.60;6.47;;;;;;;16.65;100.00;102374.22;6218591;23;20024;-87
2023/10/08 02:38:16;;;;;;;22.33;6.75;;;;;;;16.64;100.00;102368.06;6216430;23;20045;-86
2023/10/08 02:40:49;;;;;;;21.13;5.78;;;;;;;16.64;100.00;102353.88;6219158;23;20336;-85
2023/10/08 02:43:16;;;;;;;15.40;5.70;;;;;;;16.64;100.00;102367.34;6219728;23;20013;-86
2023/10/08 02:45:49;;;;;;;19.00;6.40;;;;;;;16.63;100.00;102345.03;6192628;23;20032;-86
2023/10/08 02:48:16;;;;;;;16.60;6.03;;;;;;;16.60;100.00;102319.03;6219332;23;20013;-86
2023/10/08 02:50:46;;;;;;;22.05;6.18;;;;;;;16.59;100.00;102317.53;6192792;23;20017;-86
2023/10/08 02:53:23;;;;;;;24.08;6.38;;;;;;;16.58;100.00;102369.81;6219511;23;20076;-86
2023/10/08 02:55:50;;;;;;;21.20;6.20;;;;;;;16.57;100.00;102376.38;6220354;23;20418;-85
2023/10/08 02:58:18;;;;;;;21.33;6.22;;;;;;;16.58;100.00;102355.63;6192977;23;20021;-86
2023/10/08 03:00:48;;;;;;;13.73;5.90;;;;;;;16.57;100.00;102368.31;6193073;23;20025;-87
2023/10/08 03:03:15;;;;;;;17.40;5.72;;;;;;;16.58;100.00;102375.19;6192179;23;20025;-86
2023/10/08 03:05:46;;;;;;;21.60;6.60;;;;;;;16.55;100.00;102343.81;6168112;23;20450;-86
2023/10/08 03:08:19;;;;;;;14.40;5.53;;;;;;;16.55;100.00;102364.56;6192414;23;20332;-86
2023/10/08 03:10:48;;;;;;;17.48;6.03;;;;;;;16.54;100.00;102384.56;6188040;23;20113;-85
2023/10/08 03:13:16;;;;;;;17.73;5.88;;;;;;;16.54;100.00;102357.69;6189689;23;20018;-86
2023/10/08 03:18:44;;;;;;;16.55;5.85;;;;;;;16.52;100.00;102352.75;6138148;23;20045;-86
2023/10/08 03:21:20;;;;;;;18.60;6.03;;;;;;;16.51;100.00;102358.56;6187487;23;20438;-85
2023/10/08 03:23:50;;;;;;;14.35;5.60;;;;;;;16.49;100.00;102367.06;6188592;23;20024;-85
2023/10/08 03:26:33;;;;;;;13.23;5.60;;;;;;;16.47;100.00;102355.25;6187595;23;20025;-86
2023/10/08 03:29:05;;;;;;;17.80;6.15;;;;;;;16.47;100.00;102349.91;6189925;23;20052;-86
2023/10/08 03:31:50;;;;;;;16.77;6.55;;;;;;;16.45;100.00;102338.84;6188969;23;20105;-85
2023/10/08 03:34:19;;;;;;;15.95;5.72;;;;;;;16.43;100.00;102349.28;6187684;23;20116;-85
2023/10/08 03:36:49;;;;;;;16.92;6.10;;;;;;;16.41;100.00;102355.09;6189819;23;20013;-86
2023/10/08 03:39:20;;;;;;;19.67;5.72;;;;;;;16.41;100.00;102383.91;6187771;23;20065;-86
2023/10/08 03:42:05;;;;;;;17.60;5.70;;;;;;;16.41;100.00;102405.41;6189922;23;20018;-86
2023/10/08 03:44:32;;;;;;;14.23;6.18;;;;;;;16.40;100.00;102407.34;6188135;23;20025;-85
2023/10/08 03:46:58;;;;;;;18.67;6.00;;;;;;;16.41;100.00;102405.41;6189300;23;20017;-86
2023/10/08 03:49:25;;;;;;;18.77;6.18;;;;;;;16.42;100.00;102396.16;6189208;23;20048;-85
2023/10/08 03:51:52;;;;;;;17.27;6.65;;;;;;;16.42;100.00;102396.16;6189702;23;20022;-86
2023/10/08 03:54:29;;;;;;;17.65;5.88;;;;;;;16.41;100.00;102416.16;6189367;23;20444;-85
2023/10/08 03:56:56;;;;;;;19.35;6.53;;;;;;;16.41;100.00;102408.09;6189877;23;20421;-86
2023/10/08 03:59:33;;;;;;;15.98;7.00;;;;;;;16.42;100.00;102414.97;6189087;23;20014;-85
2023/10/08 04:02:14;;;;;;;18.45;6.47;;;;;;;16.42;100.00;102412.28;6189205;23;20440;-85
2023/10/08 04:04:51;;;;;;;17.90;6.82;;;;;;;16.43;100.00;102417.22;6189351;23;20423;-85
2023/10/08 04:12:48;;;;;;;20.23;6.57;;;;;;;16.22;100.00;102459.06;6159963;23;20100;-87
2023/10/08 04:15:16;;;;;;;15.27;6.15;;;;;;;16.15;100.00;102458.53;6159381;23;20018;-88
2023/10/08 04:17:44;;;;;;;27.85;6.03;;;;;;;16.13;100.00;102460.91;6183327;23;20456;-88
2023/10/08 04:22:59;;;;;;;21.33;5.40;;;;;;;15.91;100.00;102479.69;6162170;23;20045;-88
2023/10/08 04:25:27;;;;;;;18.73;5.00;;;;;;;15.75;100.00;102475.22;6161080;23;20318;-87
2023/10/08 04:27:58;;;;;;;23.02;5.40;;;;;;;15.65;100.00;102455.56;6161825;23;20022;-88
2023/10/08 04:30:36;;;;;;;15.82;4.70;;;;;;;15.62;100.00;102453.75;6160629;23;20110;-88
2023/10/08 04:33:12;;;;;;;17.23;5.25;;;;;;;15.59;100.00;102460.00;6162432;23;20026;-89
2023/10/08 04:35:55;;;;;;;16.40;5.07;;;;;;;15.58;100.00;102452.41;6160203;23;20037;-88
2023/10/08 04:38:28;;;;;;;13.13;4.70;;;;;;;15.55;100.00;102448.63;6135263;23;20028;-87
2023/10/08 04:41:01;;;;;;;16.20;4.78;;;;;;;15.51;100.00;102450.66;6161928;23;20025;-87
2023/10/08 04:43:28;;;;;;;14.57;4.60;;;;;;;15.50;100.00;102433.06;6160503;23;20044;-87
2023/10/08 04:45:57;;;;;;;20.40;4.75;;;;;;;15.47;100.00;102422.44;6161233;23;20025;-87
2023/10/08 04:48:31;;;;;;;19.00;4.85;;;;;;;15.45;100.00;102420.19;6160873;23;20010;-87
2023/10/08 04:50:59;;;;;;;14.70;4.88;;;;;;;15.42;100.00;102428.34;6161529;23;20021;-87
2023/10/08 04:53:37;;;;;;;17.40;5.00;;;;;;;15.39;100.00;102434.56;6160789;23;20899;-87
2023/10/08 04:56:06;;;;;;;15.13;4.60;;;;;;;15.39;100.00;102467.53;6162011;23;20014;-88
2023/10/08 04:58:36;;;;;;;12.02;4.05;;;;;;;15.37;100.00;102475.25;6183723;23;20047;-87
2023/10/08 05:17:03;;;;;;;11.07;3.65;;;;;;;15.30;100.00;102465.47;6219910;23;20067;-88
2023/10/08 05:19:56;;;;;;;12.98;4.32;;;;;;;15.29;100.00;102473.97;6219211;23;20692;-88
2023/10/08 05:25:11;;;;;;;13.05;4.45;;;;;;;15.22;100.00;102488.34;6193538;23;20463;-88
2023/10/08 05:33:23;;;;;;;14.27;4.90;;;;;;;15.13;100.00;102506.28;6219582;23;20412;-88
2023/10/08 05:36:02;;;;;;;11.70;5.15;;;;;;;15.07;100.00;102513.34;6219759;23;20048;-86
2023/10/08 05:49:15;;;;;;;9.38;2.47;;;;;;;14.56;100.00;102524.69;6219263;23;20044;-86
2023/10/08 06:05:20;;;;;;;9.93;2.45;;;;;;;14.25;100.00;102527.00;6219347;23;20677;-85
2023/10/08 06:13:13;;;;;;;3.65;1.70;;;;;;;14.16;100.00;102539.50;6219403;23;20072;-87
2023/10/08 06:16:31;;;;;;;4.28;1.42;;;;;;;14.11;100.00;102553.38;6221026;23;20019;-91
2023/10/08 06:18:33;;;;;;;2.70;1.38;;;;;;;14.09;100.00;102569.13;6186098;23;20051;-88
2023/10/08 06:21:11;;;;;;;5.63;1.30;;;;;;;14.05;100.00;102571.88;6193826;23;20021;-83
2023/10/08 06:23:41;;;;;;;3.58;1.40;;;;;;;14.02;100.00;102578.06;6220418;23;20309;-85
2023/10/08 06:28:39;;;;;;;3.70;1.42;;;;;;;13.96;100.00;102572.50;6226115;23;20019;-95
2023/10/08 06:31:11;;;;;;;4.43;1.40;;;;;;;13.96;100.00;102583.19;6203258;23;20045;-87
2023/10/08 06:33:40;;;;;;;5.78;1.45;;;;;;;13.90;100.00;102589.47;6198439;23;20024;-87
2023/10/08 06:36:15;;;;;;;3.45;1.48;;;;;;;13.89;100.00;102590.63;6222024;23;20052;-95
2023/10/08 06:38:49;;;;;;;4.90;1.42;;;;;;;13.91;100.00;102589.03;6222649;23;20017;-87
2023/10/08 06:41:20;;;;;;;6.57;1.55;;;;;;;13.88;100.00;102595.25;6222042;23;20013;-90
2023/10/08 06:44:07;;;;;;;2.92;1.50;;;;;;;13.87;100.00;102588.38;6196117;23;20485;-87
2023/10/08 06:46:34;;;;;;;6.57;1.70;;;;;;;13.86;100.00;102596.81;6194322;23;20048;-82
2023/10/08 06:49:11;;;;;;;6.85;1.58;;;;;;;13.82;100.00;102599.56;6220536;23;20021;-83
2023/10/08 06:51:41;;;;;;;5.20;1.50;;;;;;;13.77;100.00;102593.97;6194833;23;20506;-87
2023/10/08 06:54:10;;;;;;;3.20;1.55;;;;;;;13.79;100.00;102594.28;6194411;23;20465;-89
2023/10/08 06:56:37;;;;;;;5.65;1.40;;;;;;;13.81;100.00;102600.00;6195055;23;20024;-85
2023/10/08 06:59:05;;;;;;;2.30;1.42;;;;;;;13.80;100.00;102601.16;6169049;23;20136;-85
2023/10/08 07:01:45;;;;;;;1.77;1.67;;;;;;;13.78;99.75;102604.25;6220160;23;20084;-83
2023/10/08 07:04:13;;;;;;;4.65;2.08;;;;;;;13.77;99.71;102605.41;6193489;23;20017;-82
2023/10/08 07:06:45;;;;;;;3.15;1.75;;;;;;;13.76;99.71;102603.16;6218228;23;20039;-84
2023/10/08 07:11:58;;;;;;;2.63;1.55;;;;;;;13.77;99.97;102612.69;6220452;23;20492;-90
2023/10/08 07:14:26;;;;;;;1.40;1.27;;;;;;;13.78;100.00;102612.28;6220393;23;20013;-86
2023/10/08 07:16:58;;;;;;;2.47;1.80;;;;;;;13.79;100.00;102608.44;6220053;23;20017;-87
2023/10/08 07:19:37;;;;;;;1.60;1.50;;;;;;;13.83;100.00;102617.16;6168095;23;20032;-84
2023/10/08 07:22:17;;;;;;;3.33;1.80;;;;;;;13.88;100.00;102618.56;6193131;23;20021;-84
2023/10/08 07:24:50;;;;;;;2.13;2.03;;;;;;;13.89;100.00;102620.84;6219043;23;20043;-85
2023/10/08 07:27:21;;;;;;;2.42;2.20;;;;;;;13.91;100.00;102625.78;6194636;23;20962;-89
2023/10/08 07:29:49;;;;;;;2.13;1.85;;;;;;;13.93;99.89;102620.75;6220277;23;20029;-86
2023/10/08 07:32:18;;;;;;;5.95;2.13;;;;;;;13.95;100.00;102626.44;6219991;23;20021;-84
2023/10/08 07:34:45;;;;;;;2.08;1.90;;;;;;;14.01;99.84;102632.78;6220036;23;20017;-87
2023/10/08 07:37:12;;;;;;;2.05;1.85;;;;;;;14.05;99.96;102619.31;6192616;23;20096;-88
2023/10/08 07:39:46;;;;;;;2.88;1.83;;;;;;;14.06;99.45;102621.59;6219002;23;20452;-86
2023/10/08 07:42:14;;;;;;;4.95;2.25;;;;;;;14.10;99.56;102621.50;6192987;23;20013;-85
2023/10/08 07:44:40;;;;;;;5.10;3.63;;;;;;;14.15;99.37;102629.78;6219501;23;20017;-86
2023/10/08 07:47:11;;;;;;;3.45;2.50;;;;;;;14.23;99.43;102625.03;6219127;23;20415;-85
2023/10/08 07:49:39;;;;;;;3.00;2.60;;;;;;;14.29;99.32;102634.06;6219775;23;20101;-87
2023/10/08 07:52:06;;;;;;;2.67;2.13;;;;;;;14.34;98.50;102636.25;6219544;23;20013;-86
2023/10/08 07:54:35;;;;;;;3.00;2.70;;;;;;;14.39;98.51;102630.41;6219504;23;20017;-85
2023/10/08 07:57:08;;;;;;;2.50;2.30;;;;;;;14.40;97.68;102649.88;6219796;23;20013;-82
2023/10/08 07:59:46;;;;;;;3.00;2.50;;;;;;;14.38;96.51;102654.94;6219574;23;20332;-87
2023/10/08 08:02:17;;;;;;;4.57;2.60;;;;;;;14.40;96.76;102663.28;6219424;23;20068;-87
2023/10/08 08:04:50;;;;;;;2.78;2.58;;;;;;;14.52;96.56;102654.59;6219523;23;20024;-85
2023/10/08 08:07:18;;;;;;;3.00;2.80;;;;;;;14.65;96.96;102652.75;6191793;23;20044;-85
2023/10/08 08:10:23;;;;;;;3.08;2.88;;;;;;;14.70;95.10;102660.28;6219120;23;20047;-86
2023/10/08 08:12:39;;;;;;;3.60;2.78;;;;;;;14.70;94.44;102667.56;6187886;23;20021;-85
2023/10/08 08:15:14;;;;;;;2.58;2.47;;;;;;;14.70;94.67;102668.31;6219676;23;20013;-86
2023/10/08 08:17:42;;;;;;;2.80;2.60;;;;;;;14.70;94.21;102668.31;6192869;23;20084;-88
2023/10/08 08:20:19;;;;;;;3.20;2.47;;;;;;;14.73;94.02;102682.81;6221392;23;20017;-85
2023/10/08 08:22:54;;;;;;;5.85;2.78;;;;;;;14.69;93.41;102680.22;6220508;23;20023;-87
2023/10/08 08:25:34;;;;;;;2.80;2.60;;;;;;;14.65;92.86;102676.88;6167076;23;20045;-87
2023/10/08 08:28:01;;;;;;;2.55;2.45;;;;;;;14.72;92.76;102682.06;6166404;23;20025;-86
2023/10/08 08:30:27;;;;;;;6.55;2.42;;;;;;;14.76;92.79;102688.09;6217888;23;20044;-86
2023/10/08 08:32:56;;;;;;;2.92;2.72;;;;;;;14.83;92.55;102692.50;6167450;23;20826;-87
2023/10/08 08:35:23;;;;;;;4.70;3.05;;;;;;;14.82;91.97;102699.78;6218211;23;20005;-92
2023/10/08 08:37:51;;;;;;;3.40;3.10;;;;;;;14.82;91.71;102707.81;6166723;23;20485;-92
2023/10/08 08:40:24;;;;;;;7.75;2.70;;;;;;;14.82;91.65;102712.44;6168652;23;20472;-86
2023/10/08 08:42:58;;;;;;;5.22;2.70;;;;;;;14.83;91.57;102708.56;6192830;23;20502;-87
2023/10/08 08:45:25;;;;;;;4.30;2.58;;;;;;;14.88;91.44;102721.47;6192834;23;20494;-88
2023/10/08 08:47:53;;;;;;;2.53;2.42;;;;;;;14.87;90.12;102720.72;6219836;23;20025;-88
2023/10/08 08:50:21;;;;;;;2.92;2.35;;;;;;;14.85;90.45;102719.63;6191766;23;20024;-89
2023/10/08 08:52:48;;;;;;;4.70;2.72;;;;;;;14.90;90.13;102708.41;6193251;23;20017;-88
2023/10/08 08:55:16;;;;;;;2.53;2.42;;;;;;;14.98;89.37;102709.72;6192621;23;20013;-88
2023/10/08 08:57:49;;;;;;;2.58;2.15;;;;;;;15.09;89.60;102709.47;6194308;23;20108;-89
2023/10/08 09:00:18;;;;;;;2.72;2.33;;;;;;;15.19;88.75;102703.84;6193451;23;20044;-88
2023/10/08 09:02:47;;;;;;;3.28;2.40;;;;;;;15.31;88.85;102700.41;6217307;23;20447;-88
2023/10/08 09:08:03;;;;;;;2.60;2.40;;;;;;;15.44;86.97;102702.41;6192433;23;20088;-88
2023/10/08 09:10:36;;;;;;;2.58;2.33;;;;;;;15.37;86.21;102695.28;6191581;23;20399;-83
2023/10/08 09:13:09;;;;;;;6.80;2.40;;;;;;;15.29;86.54;102697.41;6220336;23;20467;-80
2023/10/08 09:15:38;;;;;;;2.78;2.50;;;;;;;15.34;86.66;102688.09;6218223;23;20024;-82
2023/10/08 09:18:06;;;;;;;3.00;2.45;;;;;;;15.48;86.59;102695.00;6192598;23;20072;-82
2023/10/08 09:20:43;;;;;;;2.97;2.53;;;;;;;15.57;86.17;102693.22;6191195;23;20025;-83
2023/10/08 09:23:17;;;;;;;2.65;2.45;;;;;;;15.61;85.55;102685.03;6218782;23;20088;-84
2023/10/08 09:25:48;;;;;;;4.65;2.63;;;;;;;15.62;85.87;102690.00;6219053;23;20013;-80
2023/10/08 09:28:16;;;;;;;3.80;2.65;;;;;;;15.62;85.48;102692.66;6218651;23;20017;-81
2023/10/08 09:30:45;;;;;;;5.63;3.17;;;;;;;15.66;85.11;102704.06;6217950;23;20471;-82
2023/10/08 09:33:13;;;;;;;3.85;2.40;;;;;;;15.66;85.13;102703.31;6190429;23;20383;-81
2023/10/08 09:35:43;;;;;;;4.07;2.22;;;;;;;15.71;84.96;102708.16;6188268;23;20100;-81
2023/10/08 09:38:10;;;;;;;3.08;2.40;;;;;;;15.74;84.28;102704.63;6216096;23;20089;-80
2023/10/08 09:40:38;;;;;;;2.72;2.55;;;;;;;15.82;84.39;102713.22;6216719;23;20060;-81
2023/10/08 09:43:05;;;;;;;2.60;2.40;;;;;;;15.83;84.47;102720.84;6216202;23;20013;-81
2023/10/08 09:45:38;;;;;;;2.50;2.40;;;;;;;15.89;83.78;102718.41;6190770;23;20025;-81
2023/10/08 09:48:11;;;;;;;3.28;2.50;;;;;;;15.90;83.55;102719.91;6191659;23;20505;-81
2023/10/08 09:50:41;;;;;;;2.80;2.60;;;;;;;15.91;84.00;102710.66;6218599;23;20415;-80
2023/10/08 09:53:22;;;;;;;2.72;2.50;;;;;;;15.89;83.94;102723.78;6191144;23;20383;-82
2023/10/08 09:55:56;;;;;;;3.77;2.67;;;;;;;15.98;83.76;102710.47;6192433;23;20440;-84
2023/10/08 09:58:25;;;;;;;3.97;2.40;;;;;;;16.02;83.23;102698.41;6217675;23;20038;-80
2023/10/08 10:00:54;;;;;;;3.92;2.83;;;;;;;16.12;83.27;102711.94;6219038;23;20056;-81
2023/10/08 10:03:27;;;;;;;2.83;2.60;;;;;;;16.15;82.79;102709.16;6191332;23;20021;-82
2023/10/08 10:05:58;;;;;;;3.25;2.97;;;;;;;16.15;82.65;102693.03;6218806;23;20097;-82
2023/10/08 10:08:27;;;;;;;2.80;2.50;;;;;;;16.17;82.49;102693.34;6191115;23;20483;-80
2023/10/08 10:11:00;;;;;;;3.88;2.72;;;;;;;16.24;82.80;102687.75;6218381;23;20457;-83
2023/10/08 10:13:41;;;;;;;3.20;2.90;;;;;;;16.31;82.85;102695.59;6218034;23;20100;-83
2023/10/08 10:16:13;;;;;;;;;;;;;;;16.38;83.47;102699.25;6218917;23;20085;-81
2023/10/08 10:18:44;;;;;;;3.67;3.42;;;;;;;16.42;82.38;102700.63;6217839;23;20378;-79
2023/10/08 10:21:12;;;;;;;3.40;3.10;;;;;;;16.42;82.41;102705.25;6192015;23;20045;-82
2023/10/08 10:23:50;;;;;;;3.47;3.25;;;;;;;16.41;82.65;102699.13;6218493;23;20375;-81
2023/10/08 10:26:34;;;;;;;3.47;3.28;;;;;;;16.46;82.72;102703.19;6191830;23;20439;-81
2023/10/08 10:29:10;;;;;;;3.80;3.53;;;;;;;16.44;82.81;102711.69;6216756;23;20399;-80
2023/10/08 10:31:53;;;;;;;3.67;3.47;;;;;;;16.42;82.85;102702.56;6166044;23;20109;-83
2023/10/08 10:34:23;;;;;;;4.00;3.70;;;;;;;16.46;82.79;102701.28;6191201;23;20433;-82
2023/10/08 10:36:59;;;;;;;4.03;3.72;;;;;;;16.62;83.15;102703.81;6218792;23;20021;-84
2023/10/08 10:39:27;;;;;;;4.22;3.85;;;;;;;16.73;82.07;102695.44;6218228;23;20104;-84
2023/10/08 10:42:01;;;;;;;4.75;4.03;;;;;;;16.78;81.54;102713.72;6218563;23;20085;-85
2023/10/08 10:44:32;;;;;;;3.95;3.65;;;;;;;16.79;81.58;102712.53;6217658;23;20054;-82
2023/10/08 10:47:46;;;;;;;4.20;3.83;;;;;;;16.79;81.53;102714.47;6191698;23;20048;-87
2023/10/08 10:52:32;;;;;;;;;;;;;;;16.97;82.57;102718.06;6219887;23;20048;-86
2023/10/08 10:57:56;;;;;;;4.10;3.70;;;;;;;16.96;81.42;102697.72;6219796;23;20216;-87
2023/10/08 11:03:03;;;;;;;3.90;3.70;;;;;;;16.87;81.44;102694.94;6193217;23;20025;-86
2023/10/08 11:05:33;;;;;;;4.70;4.40;;;;;;;16.85;81.34;102686.56;6219117;23;20020;-83
2023/10/08 11:08:04;;;;;;;8.07;4.03;;;;;;;16.86;81.60;102684.63;6192671;23;20021;-85
2023/10/08 11:10:39;;;;;;;4.63;4.32;;;;;;;16.79;81.43;102688.34;6182588;23;20032;-86
2023/10/08 11:13:14;;;;;;;5.72;4.85;;;;;;;16.64;82.58;102690.72;6133393;23;20025;-86
2023/10/08 11:15:49;;;;;;;4.82;4.43;;;;;;;16.63;83.05;102691.13;6157374;23;20089;-87
2023/10/08 11:18:18;;;;;;;4.45;4.15;;;;;;;16.60;83.04;102700.06;6159586;23;20025;-88
2023/10/08 11:20:51;;;;;;;4.70;4.38;;;;;;;16.59;83.33;102698.56;6159616;23;20018;-86
2023/10/08 11:23:35;;;;;;;4.90;4.50;;;;;;;16.67;83.26;102689.13;6159268;23;20022;-85
2023/10/08 11:26:05;;;;;;;4.97;4.57;;;;;;;16.70;83.39;102700.94;6159940;23;20014;-86
2023/10/08 11:28:34;;;;;;;4.70;4.40;;;;;;;16.71;82.80;102694.38;6160255;23;20734;-86
2023/10/08 11:31:08;;;;;;;5.07;4.68;;;;;;;16.70;82.48;102699.00;6159418;23;20018;-85
2023/10/08 11:33:36;;;;;;;5.78;4.55;;;;;;;16.69;82.05;102686.75;6159222;23;20026;-85
2023/10/08 11:36:18;;;;;;;5.55;4.45;;;;;;;16.65;81.25;102683.41;6159587;23;20014;-84
2023/10/08 11:38:50;;;;;;;4.50;4.10;;;;;;;16.60;82.65;102675.88;6158137;23;20501;-84
2023/10/08 11:41:21;;;;;;;4.30;3.90;;;;;;;16.57;82.64;102672.09;6159040;23;20021;-84
2023/10/08 11:44:03;;;;;;;5.53;3.63;;;;;;;16.57;82.69;102682.09;6159768;23;20048;-86
2023/10/08 11:46:38;;;;;;;4.10;3.63;;;;;;;16.53;82.51;102681.47;6159049;23;20511;-83
2023/10/08 11:49:05;;;;;;;3.65;3.35;;;;;;;16.53;81.82;102671.47;6159900;23;20077;-85
2023/10/08 11:51:34;;;;;;;3.50;3.25;;;;;;;16.58;81.46;102683.63;6159317;23;20436;-88
2023/10/08 11:54:02;;;;;;;3.60;3.30;;;;;;;16.67;81.29;102665.66;6159721;23;20085;-86
2023/10/08 11:56:29;;;;;;;4.45;3.20;;;;;;;16.73;81.37;102662.41;6159173;23;20034;-87
2023/10/08 11:58:57;;;;;;;6.07;3.20;;;;;;;16.73;80.64;102670.50;6158680;23;20018;-84
2023/10/08 12:01:24;;;;;;;5.28;2.88;;;;;;;16.81;80.97;102669.78;6158505;23;20017;-93
2023/10/08 12:03:51;;;;;;;5.50;2.90;;;;;;;16.91;80.30;102654.47;6160275;23;20022;-91
2023/10/08 12:06:19;;;;;;;3.50;3.20;;;;;;;16.92;80.27;102653.28;6162501;23;20495;-91
2023/10/08 12:08:49;;;;;;;4.65;3.10;;;;;;;16.95;80.12;102647.03;6166282;23;20018;-94
2023/10/08 12:11:16;;;;;;;3.33;2.90;;;;;;;17.02;80.27;102644.09;6220018;23;20017;-86
2023/10/08 12:13:44;;;;;;;3.42;3.03;;;;;;;17.00;80.46;102641.84;6191867;23;20024;-89
2023/10/08 12:16:17;;;;;;;9.70;3.20;;;;;;;17.03;80.62;102626.03;6192287;23;20044;-88
2023/10/08 12:18:48;;;;;;;3.35;2.97;;;;;;;17.06;80.72;102625.16;6220241;23;20048;-89
2023/10/08 12:21:16;;;;;;;6.72;2.83;;;;;;;17.03;80.31;102618.69;6219643;23;20021;-88
2023/10/08 12:23:45;;;;;;;7.82;2.60;;;;;;;16.98;80.74;102619.25;6167769;23;20537;-89
2023/10/08 12:26:15;;;;;;;3.92;2.67;;;;;;;17.02;80.84;102611.06;6193030;23;20045;-89
2023/10/08 12:28:48;;;;;;;2.78;2.47;;;;;;;17.03;81.00;102609.88;6192383;23;20016;-88
2023/10/08 12:31:16;;;;;;;3.05;2.47;;;;;;;16.99;80.75;102605.38;6219572;23;20013;-89
2023/10/08 12:33:43;;;;;;;6.35;2.72;;;;;;;16.97;80.80;102604.31;6192313;23;20049;-89
2023/10/08 12:36:11;;;;;;;2.95;2.58;;;;;;;17.05;80.78;102597.50;6192947;23;20017;-89
2023/10/08 12:38:43;;;;;;;2.58;2.38;;;;;;;17.09;79.79;102597.38;6219602;23;20024;-89
2023/10/08 12:41:13;;;;;;;4.80;2.40;;;;;;;17.09;80.29;102603.50;6219384;23;20013;-88
2023/10/08 12:43:44;;;;;;;2.85;2.38;;;;;;;17.12;80.59;102594.56;6219164;23;20478;-89
2023/10/08 12:46:18;;;;;;;2.78;2.20;;;;;;;17.15;79.88;102593.66;6219415;23;20448;-89
2023/10/08 12:48:52;;;;;;;2.83;2.40;;;;;;;17.11;79.84;102598.44;6193415;23;20067;-89
2023/10/08 12:51:24;;;;;;;4.07;2.47;;;;;;;17.04;80.44;102585.22;6219134;23;20090;-89
2023/10/08 12:54:03;;;;;;;4.07;2.58;;;;;;;17.07;81.01;102581.66;6220093;23;20001;-88
2023/10/08 12:56:39;;;;;;;2.60;2.10;;;;;;;17.12;79.90;102581.09;6218533;23;20013;-87
2023/10/08 12:59:07;;;;;;;2.75;1.80;;;;;;;17.12;80.22;102583.03;6219674;23;20017;-88
2023/10/08 13:01:36;;;;;;;5.28;2.53;;;;;;;17.13;79.73;102582.59;6219495;23;20013;-89
2023/10/08 13:04:07;;;;;;;4.88;2.05;;;;;;;17.11;79.75;102576.16;6219495;23;20025;-89